createdAt,value
2023-10-20T00:02:17.527Z,9.39
2023-10-20T00:05:29.728Z,9.43
2023-10-20T00:08:42.164Z,9.45
2023-10-20T00:11:54.227Z,9.43
2023-10-20T00:15:06.493Z,9.45
2023-10-20T00:18:19.753Z,9.45
2023-10-20T00:33:30.596Z,9.29
2023-10-20T00:36:42.950Z,9.32
2023-10-20T00:43:44.589Z,9.26
2023-10-20T00:51:13.100Z,9.35
2023-10-20T00:54:25.840Z,9.36
2023-10-20T00:57:38.481Z,9.41
2023-10-20T01:00:50.843Z,9.40
2023-10-20T01:04:03.271Z,9.39
2023-10-20T01:07:16.437Z,9.43
2023-10-20T01:10:29.907Z,9.43
2023-10-20T01:13:42.114Z,9.44
2023-10-20T01:16:54.882Z,9.45
2023-10-20T01:20:11.198Z,9.49
2023-10-20T01:23:23.574Z,9.50
2023-10-20T01:26:36.011Z,9.52
2023-10-20T01:29:48.714Z,9.53
2023-10-20T01:33:01.031Z,9.54
2023-10-20T01:36:13.674Z,9.54
2023-10-20T01:39:26.768Z,9.52
2023-10-20T01:42:39.000Z,9.54
2023-10-20T01:45:51.040Z,9.55
2023-10-20T01:49:03.116Z,9.56
2023-10-20T01:52:15.085Z,9.54
2023-10-20T01:55:27.259Z,9.55
2023-10-20T01:58:39.265Z,9.58
2023-10-20T02:05:33.019Z,9.60
2023-10-20T02:08:45.242Z,9.59
2023-10-20T02:31:22.914Z,9.48
2023-10-20T02:34:35.460Z,9.44
2023-10-20T02:37:48.648Z,9.44
2023-10-20T02:41:03.788Z,9.43
2023-10-20T02:44:18.515Z,9.45
2023-10-20T02:47:30.937Z,9.44
2023-10-20T02:50:43.387Z,9.42
2023-10-20T02:53:55.815Z,9.41
2023-10-20T02:57:11.100Z,9.41
2023-10-20T03:00:24.600Z,9.42
2023-10-20T03:03:36.731Z,9.42
2023-10-20T03:06:49.376Z,9.42
2023-10-20T03:10:02.397Z,9.42
2023-10-20T03:13:14.813Z,9.41
2023-10-20T03:16:26.970Z,9.36
2023-10-20T03:19:39.033Z,9.30
2023-10-20T03:22:51.097Z,9.31
2023-10-20T03:26:27.210Z,9.26
2023-10-20T03:29:44.524Z,9.29
2023-10-20T03:32:56.921Z,9.21
2023-10-20T03:36:10.761Z,9.22
2023-10-20T03:39:25.449Z,9.24
2023-10-20T03:42:38.006Z,9.23
2023-10-20T03:45:53.972Z,9.25
2023-10-20T03:49:06.268Z,9.25
2023-10-20T03:52:20.121Z,9.26
2023-10-20T03:55:32.182Z,9.28
2023-10-20T03:58:46.195Z,9.34
2023-10-20T04:01:58.225Z,9.36
2023-10-20T04:05:16.219Z,9.37
2023-10-20T04:08:29.632Z,9.38
2023-10-20T04:11:43.528Z,9.39
2023-10-20T04:14:55.611Z,9.42
2023-10-20T04:18:08.391Z,9.44
2023-10-20T04:21:20.662Z,9.47
2023-10-20T04:24:33.739Z,9.51
2023-10-20T04:27:51.313Z,9.54
2023-10-20T04:31:17.912Z,9.55
2023-10-20T04:34:44.924Z,9.57
2023-10-20T04:38:12.013Z,9.59
2023-10-20T04:41:39.395Z,9.60
2023-10-20T04:44:56.367Z,9.57
2023-10-20T04:48:27.620Z,9.62
2023-10-20T04:51:51.878Z,9.65
2023-10-20T04:55:06.200Z,9.66
2023-10-20T04:58:20.903Z,9.66
2023-10-20T05:01:35.004Z,9.69
2023-10-20T05:04:49.266Z,9.71
2023-10-20T05:08:05.097Z,9.72
2023-10-20T05:11:18.647Z,9.74
2023-10-20T05:14:34.909Z,9.75
2023-10-20T05:17:47.844Z,9.74
2023-10-20T05:21:00.159Z,9.76
2023-10-20T05:24:13.813Z,9.77
2023-10-20T05:28:32.543Z,9.80
2023-10-20T05:35:42.637Z,9.92
2023-10-20T05:37:51.685Z,9.84
2023-10-20T05:39:10.674Z,9.95
2023-10-20T13:18:18.295Z,18.81
2023-10-20T13:21:30.866Z,18.90
2023-10-20T13:24:43.418Z,18.97
2023-10-20T13:27:55.722Z,19.12
2023-10-20T13:31:17.317Z,19.05
2023-10-20T13:34:30.079Z,19.05
2023-10-20T13:37:45.400Z,19.13
2023-10-20T13:40:57.759Z,19.04
2023-10-20T13:44:11.656Z,19.05
2023-10-20T13:47:23.943Z,18.94
2023-10-20T13:50:36.250Z,18.93
2023-10-20T13:53:48.390Z,19.13
2023-10-20T13:57:00.534Z,19.19
2023-10-20T14:00:16.330Z,19.31
2023-10-20T14:03:28.864Z,19.35
2023-10-20T14:06:41.509Z,19.32
2023-10-20T14:09:53.771Z,19.36
2023-10-20T14:13:06.656Z,19.31
2023-10-20T14:16:19.022Z,19.42
2023-10-20T14:19:31.514Z,19.65
2023-10-20T14:22:43.978Z,19.73
2023-10-20T14:26:03.172Z,19.65
2023-10-20T14:29:17.291Z,19.70
2023-10-20T14:32:29.635Z,19.65
2023-10-20T14:35:45.691Z,19.63
2023-10-20T14:38:58.308Z,19.71
2023-10-20T14:42:13.412Z,19.61
2023-10-20T14:45:26.018Z,19.63
2023-10-20T14:48:39.512Z,19.71
2023-10-20T14:51:52.104Z,19.60
2023-10-20T14:55:04.906Z,19.54
2023-10-20T14:58:17.189Z,19.42
2023-10-20T15:01:29.504Z,19.34
2023-10-20T15:04:42.879Z,19.28
2023-10-20T15:07:56.943Z,19.11
2023-10-20T15:11:14.513Z,18.93
2023-10-20T15:14:27.176Z,19.07
2023-10-20T15:17:39.574Z,19.01
2023-10-20T15:20:51.822Z,18.97
2023-10-20T15:24:04.224Z,18.77
2023-10-20T15:27:19.443Z,18.62
2023-10-20T15:30:32.198Z,18.46
2023-10-20T15:33:44.802Z,18.39
2023-10-20T15:36:58.301Z,18.16
2023-10-20T15:40:19.081Z,18.03
2023-10-20T15:43:31.061Z,17.90
2023-10-20T15:46:45.645Z,17.74
2023-10-20T15:49:59.431Z,17.61
2023-10-20T15:53:16.218Z,17.50
2023-10-20T15:56:29.266Z,17.44
2023-10-20T15:59:41.658Z,17.40
2023-10-20T16:02:53.848Z,17.26
2023-10-20T16:06:08.515Z,17.34
2023-10-20T16:09:23.690Z,17.20
2023-10-20T16:18:53.161Z,16.89
2023-10-20T16:32:33.173Z,16.52
2023-10-20T16:36:14.398Z,16.38
2023-10-20T16:42:49.247Z,16.38
2023-10-20T16:46:13.781Z,16.34
2023-10-20T16:49:37.833Z,16.36
2023-10-20T16:52:53.405Z,16.29
2023-10-20T16:56:10.185Z,16.18
2023-10-20T16:59:30.305Z,16.12
2023-10-20T17:02:49.860Z,16.04
2023-10-20T17:06:14.340Z,15.98
2023-10-20T17:09:40.408Z,15.86
2023-10-20T17:12:53.930Z,15.75
2023-10-20T17:16:11.936Z,15.74
2023-10-20T17:20:32.121Z,15.35
2023-10-20T17:27:26.461Z,15.64
2023-10-20T17:30:42.872Z,15.66
2023-10-20T17:33:56.133Z,15.70
2023-10-20T17:37:09.911Z,15.96
2023-10-20T17:40:23.424Z,16.18
2023-10-20T17:43:37.727Z,16.30
2023-10-20T17:46:51.596Z,16.24
2023-10-20T17:50:06.258Z,16.19
2023-10-20T17:53:19.163Z,16.15
2023-10-20T17:56:33.260Z,16.07
2023-10-20T17:59:45.927Z,15.92
2023-10-20T18:02:59.142Z,15.85
2023-10-20T18:06:20.581Z,15.77
2023-10-20T18:09:35.162Z,15.71
2023-10-20T18:12:48.195Z,15.65
2023-10-20T18:16:01.042Z,15.71
2023-10-20T18:19:16.210Z,15.85
2023-10-20T18:22:30.547Z,15.93
2023-10-20T18:25:43.172Z,15.96
2023-10-20T19:24:05.849Z,15.82
2023-10-20T19:27:20.316Z,15.70
2023-10-20T19:30:33.222Z,15.64
2023-10-20T19:33:52.877Z,15.58
2023-10-20T19:37:05.313Z,15.53
2023-10-20T19:40:20.165Z,15.53
2023-10-20T21:13:08.791Z,15.12
2023-10-20T21:31:55.848Z,14.81
2023-10-20T21:58:46.579Z,14.67
2023-10-20T22:03:25.675Z,14.68
2023-10-20T22:07:19.583Z,14.66
